Time;durP1;ratioP1;P1;durP2;ratioP2;P2;SDS_P1;SDS_P2;PMS_P1;PMS_P2;Temp;Humidity;BMP_temperature;BMP_pressure;BME280_temperature;BME280_humidity;BME280_pressure;Samples;Min_cycle;Max_cycle;Signal;HPM_P1;HPM_P2
2022/01/30 00:01:28;;;;;;;17.00;2.90;;;;;;;15.54;45.05;102506.28;5055497;28;20025;-63
2022/01/30 00:03:54;;;;;;;14.07;2.78;;;;;;;15.52;45.80;102503.69;5055404;28;20028;-63
2022/01/30 00:06:19;;;;;;;11.48;2.20;;;;;;;15.47;44.83;102508.59;5054929;28;20017;-62
2022/01/30 00:08:45;;;;;;;11.57;2.40;;;;;;;15.48;45.40;102495.94;5055102;28;20028;-63
2022/01/30 00:11:16;;;;;;;10.20;2.28;;;;;;;15.43;45.55;102490.88;5037503;28;20032;-63
2022/01/30 00:13:42;;;;;;;14.75;2.17;;;;;;;15.39;45.85;102502.88;5037714;28;20029;-62
2022/01/30 00:16:10;;;;;;;10.60;2.05;;;;;;;15.37;44.52;102501.28;5055222;28;20032;-63
2022/01/30 00:18:58;;;;;;;16.30;2.17;;;;;;;15.36;45.39;102502.25;5055135;28;20051;-63
2022/01/30 00:23:59;;;;;;;13.80;2.33;;;;;;;15.33;45.55;102503.38;5038052;28;20029;-63
2022/01/30 00:26:30;;;;;;;15.63;3.28;;;;;;;15.30;45.50;102505.47;5054978;28;20390;-63
2022/01/30 00:28:56;;;;;;;26.20;3.35;;;;;;;15.29;45.39;102520.78;5054747;28;20102;-62
2022/01/30 00:31:24;;;;;;;6.90;2.05;;;;;;;15.28;45.66;102521.75;5020748;28;20036;-63
2022/01/30 00:33:49;;;;;;;12.80;2.30;;;;;;;15.28;44.42;102521.75;5054930;28;20021;-63
2022/01/30 00:36:15;;;;;;;10.95;1.88;;;;;;;15.23;45.44;102525.78;5054443;28;20057;-63
2022/01/30 00:38:41;;;;;;;9.48;2.63;;;;;;;15.26;44.82;102529.13;5054778;28;20017;-63
2022/01/30 00:41:07;;;;;;;10.57;1.92;;;;;;;15.23;45.53;102529.38;5054924;28;20021;-62
2022/01/30 00:43:32;;;;;;;10.48;2.63;;;;;;;15.20;45.31;102524.19;5054728;28;20021;-63
2022/01/30 00:45:58;;;;;;;15.52;2.35;;;;;;;15.18;44.61;102523.47;5054891;28;20064;-63
2022/01/30 00:48:23;;;;;;;13.70;3.45;;;;;;;15.15;44.50;102515.59;5054722;28;20107;-63
2022/01/30 00:50:49;;;;;;;14.43;2.63;;;;;;;15.14;45.01;102521.97;5054523;28;20104;-62
2022/01/30 00:53:17;;;;;;;16.08;1.92;;;;;;;15.11;45.08;102528.47;5054355;28;20029;-63
2022/01/30 00:55:43;;;;;;;12.32;2.55;;;;;;;15.08;45.47;102534.09;5054354;28;20024;-63
2022/01/30 00:58:08;;;;;;;19.15;2.80;;;;;;;15.08;44.10;102541.31;5054114;28;20021;-62
2022/01/30 01:00:34;;;;;;;16.20;2.38;;;;;;;15.05;44.44;102541.53;5036886;28;20027;-62
2022/01/30 01:03:00;;;;;;;13.68;2.47;;;;;;;15.03;44.66;102538.97;5055219;28;20499;-62
2022/01/30 01:05:26;;;;;;;18.27;2.85;;;;;;;15.01;44.40;102535.53;5054610;28;20029;-62
2022/01/30 01:07:54;;;;;;;11.40;1.85;;;;;;;14.97;44.54;102533.16;5055112;28;20028;-63
2022/01/30 01:23:45;;;;;;;20.10;2.60;;;;;;;14.85;44.50;102555.69;5054648;28;20517;-62
2022/01/30 01:26:11;;;;;;;8.77;2.08;;;;;;;14.81;44.24;102559.59;5054795;28;20021;-62
2022/01/30 01:28:36;;;;;;;16.88;2.60;;;;;;;14.80;45.52;102564.13;5036416;28;20059;-62
2022/01/30 01:31:03;;;;;;;15.30;1.90;;;;;;;14.76;45.56;102559.06;5054605;28;20095;-62
2022/01/30 01:33:40;;;;;;;21.00;3.28;;;;;;;14.72;45.46;102560.25;5054352;28;20436;-63
2022/01/30 01:36:06;;;;;;;15.02;2.10;;;;;;;14.72;45.68;102565.66;5054204;28;20077;-63
2022/01/30 01:38:31;;;;;;;10.15;2.50;;;;;;;14.72;44.46;102573.75;5036480;28;20501;-62
2022/01/30 01:40:57;;;;;;;13.43;2.13;;;;;;;14.71;44.70;102569.34;5054347;28;20098;-63
2022/01/30 01:43:26;;;;;;;13.20;2.08;;;;;;;14.69;46.04;102571.28;5054433;28;20033;-62
2022/01/30 01:45:53;;;;;;;13.52;2.42;;;;;;;14.66;45.08;102577.75;5054359;28;20036;-62
2022/01/30 01:48:19;;;;;;;11.13;2.42;;;;;;;14.68;44.48;102572.28;5036736;28;20028;-62
2022/01/30 01:50:52;;;;;;;10.32;1.92;;;;;;;14.68;45.34;102574.97;5036338;28;20024;-63
2022/01/30 01:53:21;;;;;;;16.35;2.95;;;;;;;14.65;45.77;102581.44;5054232;28;20040;-63
2022/01/30 01:55:47;;;;;;;12.63;2.17;;;;;;;14.63;45.74;102571.75;5054329;28;20525;-62
2022/01/30 01:58:12;;;;;;;21.77;2.60;;;;;;;14.60;44.63;102566.56;5056513;28;20021;-63
2022/01/30 02:00:38;;;;;;;10.13;2.17;;;;;;;14.58;45.25;102570.25;5058141;28;20482;-63
2022/01/30 02:03:04;;;;;;;13.40;2.15;;;;;;;14.60;44.68;102572.81;5040401;28;20021;-62
2022/01/30 02:05:32;;;;;;;16.13;2.50;;;;;;;14.58;45.14;102575.63;5058354;28;20021;-63
2022/01/30 02:08:25;;;;;;;8.27;1.63;;;;;;;14.56;45.19;102566.81;5057745;28;20048;-63
2022/01/30 02:13:52;;;;;;;15.48;1.90;;;;;;;14.50;44.57;102569.94;5058284;28;20170;-63
2022/01/30 02:25:03;;;;;;;7.10;2.33;;;;;;;14.39;45.54;102569.84;5057959;28;20035;-62
2022/01/30 02:27:34;;;;;;;11.82;3.03;;;;;;;14.38;44.57;102570.81;5057803;28;20029;-62
2022/01/30 02:30:00;;;;;;;14.85;1.80;;;;;;;14.37;46.08;102571.81;5057970;28;20100;-62
2022/01/30 02:32:26;;;;;;;9.95;1.60;;;;;;;14.36;45.25;102570.06;5057803;28;20486;-61
2022/01/30 02:34:52;;;;;;;13.98;2.83;;;;;;;14.36;44.29;102566.50;5040265;28;20027;-63
2022/01/30 02:37:18;;;;;;;12.23;2.00;;;;;;;14.34;44.75;102565.78;5057687;28;20029;-62
2022/01/30 02:39:43;;;;;;;9.52;2.22;;;;;;;14.27;45.94;102559.91;5057357;28;20036;-62
2022/01/30 02:42:13;;;;;;;13.10;2.60;;;;;;;14.30;45.83;102570.47;5057613;28;20040;-62
2022/01/30 02:44:48;;;;;;;14.48;2.42;;;;;;;14.30;45.10;102570.47;5057549;28;20025;-62
2022/01/30 02:47:40;;;;;;;8.18;2.45;;;;;;;14.30;44.56;102575.88;5057619;28;20086;-62
2022/01/30 02:52:38;;;;;;;21.60;3.38;;;;;;;14.26;44.70;102569.00;5057712;28;20024;-62
2022/01/30 02:55:05;;;;;;;7.00;1.98;;;;;;;14.23;44.35;102569.22;5057045;28;20040;-62
2022/01/30 02:57:30;;;;;;;15.77;3.03;;;;;;;14.22;45.77;102578.25;5039670;28;20485;-62
2022/01/30 02:59:56;;;;;;;4.07;1.60;;;;;;;14.21;45.17;102584.59;5056949;28;20033;-62
2022/01/30 03:02:21;;;;;;;15.45;2.35;;;;;;;14.18;46.27;102584.81;5057087;28;20063;-62
2022/01/30 03:04:46;;;;;;;11.30;1.98;;;;;;;14.18;45.46;102587.53;5056913;28;20033;-62
2022/01/30 03:07:12;;;;;;;15.35;3.17;;;;;;;14.19;44.39;102600.03;5056694;28;20036;-62
2022/01/30 03:09:37;;;;;;;11.32;3.15;;;;;;;14.15;44.76;102597.69;5055734;28;20467;-62
2022/01/30 03:12:03;;;;;;;10.23;1.60;;;;;;;14.16;45.81;102611.03;5038931;28;20103;-62
2022/01/30 03:14:29;;;;;;;9.60;1.75;;;;;;;14.14;45.63;102602.19;5056410;28;20460;-62
2022/01/30 03:16:54;;;;;;;24.73;3.00;;;;;;;14.13;44.58;102615.78;5039206;28;20108;-63
2022/01/30 03:19:20;;;;;;;24.77;2.47;;;;;;;14.10;44.45;102607.94;5056863;28;20056;-62
2022/01/30 03:21:45;;;;;;;11.82;2.17;;;;;;;14.10;45.51;102603.38;5056606;28;20037;-62
2022/01/30 03:24:11;;;;;;;13.85;2.67;;;;;;;14.10;45.20;102606.06;5038959;28;20036;-62
2022/01/30 03:26:39;;;;;;;10.13;2.15;;;;;;;14.08;46.00;102608.03;5039078;28;20025;-62
2022/01/30 03:29:06;;;;;;;21.95;2.58;;;;;;;14.05;45.28;102616.31;5056623;28;20356;-62
2022/01/30 03:31:39;;;;;;;14.77;2.95;;;;;;;14.03;45.52;102620.97;5039390;28;20032;-62
2022/01/30 03:34:09;;;;;;;6.20;1.60;;;;;;;14.01;44.72;102618.34;5056070;28;20142;-63
2022/01/30 03:36:35;;;;;;;11.27;3.50;;;;;;;13.96;45.12;102616.94;5055526;28;20084;-62
2022/01/30 03:39:02;;;;;;;11.00;2.30;;;;;;;13.97;45.97;102626.78;5055722;28;20070;-62
2022/01/30 03:41:27;;;;;;;19.88;1.88;;;;;;;13.93;46.30;102630.66;5055951;28;20081;-63
2022/01/30 03:43:53;;;;;;;11.50;2.50;;;;;;;13.91;45.71;102627.19;5055808;28;20032;-62
2022/01/30 03:46:21;;;;;;;28.13;2.50;;;;;;;13.92;45.71;102623.53;5038027;28;20115;-62
2022/01/30 03:48:47;;;;;;;18.02;2.55;;;;;;;13.91;44.90;102622.69;5055648;28;20043;-62
2022/01/30 03:51:13;;;;;;;11.10;2.00;;;;;;;13.94;45.31;102630.53;5055729;28;20021;-62
2022/01/30 03:53:38;;;;;;;12.82;2.25;;;;;;;13.94;45.56;102635.06;5055643;28;20032;-62
2022/01/30 03:56:04;;;;;;;16.63;2.90;;;;;;;13.94;45.50;102635.94;5055823;28;20025;-62
2022/01/30 03:58:30;;;;;;;15.55;2.20;;;;;;;13.91;44.78;102628.06;5055745;28;20028;-62
2022/01/30 04:00:55;;;;;;;10.00;1.67;;;;;;;13.92;45.44;102640.56;5055376;28;20029;-62
2022/01/30 04:03:21;;;;;;;12.05;2.35;;;;;;;13.89;45.83;102648.00;5055515;28;20067;-62
2022/01/30 04:05:46;;;;;;;7.75;1.45;;;;;;;13.86;45.01;102642.81;5037692;28;20036;-62
2022/01/30 04:08:12;;;;;;;11.35;2.67;;;;;;;13.79;45.51;102644.22;5055751;28;20031;-62
2022/01/30 04:10:38;;;;;;;12.68;2.28;;;;;;;13.78;44.64;102655.97;5055189;28;20025;-62
2022/01/30 04:13:03;;;;;;;5.10;1.58;;;;;;;13.77;45.25;102657.78;5055347;28;20039;-62
2022/01/30 04:15:29;;;;;;;16.10;3.00;;;;;;;13.73;45.10;102650.03;5055229;28;20032;-62
2022/01/30 04:17:55;;;;;;;17.75;2.67;;;;;;;13.75;45.76;102661.56;5055098;28;20070;-62
2022/01/30 04:20:20;;;;;;;12.68;1.63;;;;;;;13.72;45.84;102653.69;5055034;28;20036;-62
2022/01/30 04:22:46;;;;;;;12.95;2.28;;;;;;;13.71;45.99;102657.31;5037315;28;20548;-62
2022/01/30 04:25:11;;;;;;;11.52;1.77;;;;;;;13.71;44.88;102660.03;5055520;28;20040;-62
2022/01/30 04:27:37;;;;;;;14.35;2.40;;;;;;;13.69;46.15;102662.84;5055127;28;20386;-62
2022/01/30 04:30:04;;;;;;;10.95;2.40;;;;;;;13.67;45.36;102651.31;5037051;28;20068;-62
2022/01/30 04:32:30;;;;;;;19.88;2.03;;;;;;;13.68;45.46;102650.31;5055270;28;20044;-62
2022/01/30 04:34:58;;;;;;;9.77;1.65;;;;;;;13.61;44.96;102643.66;5054450;28;20025;-62
2022/01/30 04:37:39;;;;;;;18.33;1.92;;;;;;;13.68;46.26;102662.94;5055150;28;20095;-62
2022/01/30 04:58:26;;;;;;;14.13;1.95;;;;;;;13.79;45.91;102671.16;5059259;28;20036;-62
2022/01/30 05:01:06;;;;;;;10.10;1.55;;;;;;;13.80;45.40;102672.88;5074343;28;20029;-62
2022/01/30 05:03:51;;;;;;;12.32;2.60;;;;;;;13.82;45.81;102673.63;5074480;28;20069;-62
2022/01/30 05:06:19;;;;;;;8.57;2.13;;;;;;;13.82;46.37;102671.78;5072109;28;20525;-62
2022/01/30 05:08:44;;;;;;;22.83;2.55;;;;;;;13.82;45.67;102679.00;5020320;28;20049;-62
2022/01/30 05:11:10;;;;;;;12.10;2.45;;;;;;;13.84;45.22;102677.09;5036297;28;20059;-62
2022/01/30 05:13:42;;;;;;;14.10;1.80;;;;;;;13.84;45.85;102680.66;5054216;28;20074;-62
2022/01/30 05:16:08;;;;;;;11.50;1.92;;;;;;;13.80;45.10;102687.19;5063420;28;20035;-62
2022/01/30 05:18:33;;;;;;;11.10;1.67;;;;;;;13.84;44.75;102701.34;5074348;28;20016;-62
2022/01/30 05:20:59;;;;;;;16.13;3.13;;;;;;;13.84;44.86;102693.25;5056249;28;20382;-62
2022/01/30 05:23:25;;;;;;;11.15;1.75;;;;;;;13.82;45.41;102695.16;5074057;28;20036;-62
2022/01/30 05:25:52;;;;;;;6.57;1.55;;;;;;;13.86;44.94;102694.00;5055982;28;20052;-63
2022/01/30 05:28:18;;;;;;;12.95;1.98;;;;;;;13.87;46.04;102690.34;5056013;28;20036;-62
2022/01/30 05:30:44;;;;;;;9.35;2.10;;;;;;;13.85;45.73;102689.56;5073897;28;20063;-62
2022/01/30 05:33:13;;;;;;;13.60;2.08;;;;;;;13.90;46.04;102685.59;5073124;28;20060;-62
2022/01/30 05:35:39;;;;;;;13.15;1.85;;;;;;;13.93;45.45;102687.25;5055755;28;20052;-63
2022/01/30 05:38:05;;;;;;;12.18;2.35;;;;;;;13.91;45.08;102686.47;5073891;28;20494;-62
2022/01/30 05:40:34;;;;;;;9.23;2.60;;;;;;;13.90;44.98;102687.44;5073824;28;20100;-62
2022/01/30 05:43:00;;;;;;;7.18;2.08;;;;;;;13.95;45.37;102698.78;5074022;28;20055;-62
2022/01/30 05:45:31;;;;;;;13.43;2.70;;;;;;;13.95;44.58;102693.38;5056299;28;20071;-62
2022/01/30 05:48:01;;;;;;;5.88;1.73;;;;;;;13.93;45.71;102689.94;5068535;28;20029;-62
2022/01/30 05:50:27;;;;;;;12.38;1.83;;;;;;;13.96;44.34;102703.16;5073895;28;20028;-62
2022/01/30 05:52:52;;;;;;;15.75;2.50;;;;;;;13.97;45.22;102700.38;5073605;28;20031;-62
2022/01/30 05:55:18;;;;;;;14.15;2.22;;;;;;;13.97;44.56;102708.47;5073657;28;20020;-62
2022/01/30 05:57:43;;;;;;;17.35;2.58;;;;;;;13.99;45.80;102727.22;5073654;28;20056;-61
2022/01/30 06:00:13;;;;;;;9.05;1.60;;;;;;;13.99;44.52;102735.28;5073508;28;20020;-62
2022/01/30 06:02:42;;;;;;;10.68;1.60;;;;;;;13.98;45.29;102731.75;5073535;28;20111;-62
2022/01/30 06:05:09;;;;;;;13.90;1.63;;;;;;;13.94;44.97;102732.94;5073536;28;20027;-62
2022/01/30 06:07:35;;;;;;;17.58;2.30;;;;;;;13.88;45.10;102724.38;5055548;28;20402;-62
2022/01/30 06:10:00;;;;;;;7.80;2.13;;;;;;;13.87;45.71;102733.47;5073764;28;20021;-62
2022/01/30 06:12:25;;;;;;;11.98;1.73;;;;;;;13.87;46.36;102728.06;5073784;28;20021;-62
2022/01/30 06:14:51;;;;;;;5.55;1.23;;;;;;;13.80;45.66;102721.34;5073548;28;20035;-62
2022/01/30 06:17:16;;;;;;;12.30;2.50;;;;;;;13.77;44.93;102732.34;5055441;28;20025;-62
2022/01/30 06:19:42;;;;;;;10.77;1.70;;;;;;;13.80;45.79;102732.13;5073952;28;20052;-62
2022/01/30 06:22:07;;;;;;;10.43;1.67;;;;;;;13.78;45.66;102728.69;5055613;28;20024;-62
2022/01/30 06:24:32;;;;;;;4.78;1.40;;;;;;;13.77;45.82;102726.94;5073200;28;20078;-62
2022/01/30 06:26:58;;;;;;;5.78;1.40;;;;;;;13.76;45.19;102741.41;5073435;28;20530;-62
2022/01/30 06:29:23;;;;;;;16.25;1.55;;;;;;;13.74;45.14;102737.91;5073313;28;20017;-62
2022/01/30 06:31:48;;;;;;;7.03;1.35;;;;;;;13.74;44.68;102738.78;5073280;28;20112;-62
2022/01/30 06:34:14;;;;;;;11.13;2.38;;;;;;;13.74;45.00;102743.31;5073322;28;20031;-62
2022/01/30 06:36:39;;;;;;;11.93;1.55;;;;;;;13.72;44.86;102746.13;5073035;28;20049;-62
2022/01/30 06:39:05;;;;;;;13.73;1.60;;;;;;;13.72;44.67;102742.56;5073349;28;20017;-62
2022/01/30 06:41:30;;;;;;;10.35;2.28;;;;;;;13.71;44.33;102744.38;5073266;28;20486;-62
2022/01/30 06:43:55;;;;;;;6.20;1.33;;;;;;;13.67;44.83;102731.22;5075144;28;20052;-62
2022/01/30 06:46:21;;;;;;;11.40;2.00;;;;;;;13.68;44.80;102732.97;5077074;28;20035;-63
2022/01/30 06:48:46;;;;;;;6.25;1.35;;;;;;;13.65;44.65;102738.56;5076971;28;20024;-62
2022/01/30 06:51:11;;;;;;;9.40;1.83;;;;;;;13.60;45.19;102743.34;5076874;28;20491;-62
2022/01/30 06:53:37;;;;;;;11.13;1.88;;;;;;;13.55;44.41;102742.81;5042348;28;20029;-62
2022/01/30 06:56:02;;;;;;;7.60;1.13;;;;;;;13.48;44.57;102747.75;5059595;28;20032;-63
2022/01/30 06:58:28;;;;;;;6.22;1.40;;;;;;;13.46;45.45;102748.78;5059880;28;20028;-62
2022/01/30 07:00:53;;;;;;;17.63;2.80;;;;;;;13.45;44.52;102747.09;5077392;28;20028;-62
2022/01/30 07:03:18;;;;;;;7.78;2.33;;;;;;;13.40;45.59;102742.84;5077897;28;20056;-62
2022/01/30 07:05:44;;;;;;;17.17;1.73;;;;;;;13.39;45.65;102748.34;5077789;28;20441;-62
2022/01/30 07:08:09;;;;;;;6.68;2.50;;;;;;;13.40;45.74;102760.81;5059773;28;20037;-62
2022/01/30 07:10:34;;;;;;;10.75;1.77;;;;;;;13.37;44.78;102767.28;5077568;28;20020;-62
2022/01/30 07:13:00;;;;;;;6.75;1.35;;;;;;;13.38;44.58;102770.84;5059855;28;20047;-62
2022/01/30 07:15:25;;;;;;;14.18;1.40;;;;;;;13.38;44.87;102768.13;5069541;28;20446;-62
2022/01/30 07:17:50;;;;;;;15.70;1.85;;;;;;;13.36;45.61;102770.94;5058222;28;20467;-62
2022/01/30 07:20:16;;;;;;;8.35;1.52;;;;;;;13.35;45.31;102777.28;5058104;28;20033;-62
2022/01/30 07:22:41;;;;;;;10.18;1.75;;;;;;;13.34;45.37;102780.09;5057013;28;20067;-62
2022/01/30 07:25:07;;;;;;;14.77;1.75;;;;;;;13.30;45.38;102776.72;5057071;28;20048;-62
2022/01/30 07:27:37;;;;;;;7.20;1.52;;;;;;;13.28;45.03;102783.16;5039216;28;20029;-62
2022/01/30 07:30:04;;;;;;;10.73;1.83;;;;;;;13.25;44.50;102789.63;5044729;28;20032;-62
2022/01/30 07:32:29;;;;;;;12.90;2.08;;;;;;;13.19;44.55;102781.06;5063756;28;20028;-62
2022/01/30 07:34:54;;;;;;;7.10;1.67;;;;;;;13.23;44.74;102791.53;5067145;28;20047;-62
2022/01/30 07:37:20;;;;;;;12.00;1.50;;;;;;;13.22;44.63;102797.88;5064658;28;20539;-62
2022/01/30 07:39:46;;;;;;;13.27;2.13;;;;;;;13.23;44.82;102804.97;5048302;28;20025;-62
2022/01/30 07:42:12;;;;;;;10.13;1.90;;;;;;;13.22;45.31;102789.81;5046395;28;20103;-62
2022/01/30 07:44:38;;;;;;;10.95;1.98;;;;;;;13.27;45.33;102806.53;5063953;28;20017;-62
2022/01/30 07:47:04;;;;;;;10.00;1.98;;;;;;;13.30;43.92;102803.63;5047348;28;20028;-62
2022/01/30 07:49:29;;;;;;;10.63;2.28;;;;;;;13.34;44.51;102798.94;5063486;28;20029;-62
2022/01/30 07:51:55;;;;;;;9.32;1.58;;;;;;;13.38;45.57;102809.38;5064327;28;20378;-62
2022/01/30 07:54:20;;;;;;;5.43;2.00;;;;;;;13.37;44.98;102802.25;5046820;28;20394;-62
2022/01/30 07:56:46;;;;;;;8.98;2.00;;;;;;;13.40;44.25;102812.84;5062575;28;20497;-63
2022/01/30 07:59:11;;;;;;;19.85;2.03;;;;;;;13.43;45.27;102819.84;5065600;28;20025;-62
2022/01/30 08:01:36;;;;;;;7.80;1.73;;;;;;;13.40;44.89;102817.34;5062597;28;20158;-63
2022/01/30 08:04:03;;;;;;;10.32;1.73;;;;;;;13.47;44.37;102818.69;5066583;28;20114;-62
2022/01/30 08:06:29;;;;;;;17.67;1.90;;;;;;;13.49;45.23;102818.59;5045579;28;20021;-62
2022/01/30 08:08:54;;;;;;;12.05;2.38;;;;;;;13.55;44.52;102818.19;5064100;28;20020;-62
2022/01/30 08:11:19;;;;;;;10.45;2.17;;;;;;;13.60;45.26;102830.41;5064085;28;20066;-62
2022/01/30 08:13:45;;;;;;;6.65;1.90;;;;;;;13.64;45.17;102831.94;5060145;28;20551;-62
2022/01/30 08:16:10;;;;;;;18.38;3.10;;;;;;;13.63;44.76;102826.63;5064017;28;20127;-62
2022/01/30 08:18:37;;;;;;;12.48;2.15;;;;;;;13.62;45.11;102824.94;5070238;28;20016;-62
2022/01/30 08:21:04;;;;;;;17.90;1.80;;;;;;;13.65;45.49;102830.13;5075312;28;20039;-63
2022/01/30 08:23:32;;;;;;;13.50;2.45;;;;;;;13.70;45.23;102838.75;5074939;28;20033;-63
2022/01/30 08:25:57;;;;;;;8.13;1.98;;;;;;;13.74;45.07;102838.44;5069870;28;20551;-63
2022/01/30 08:28:22;;;;;;;15.48;2.20;;;;;;;13.78;44.87;102837.28;5054605;28;20029;-63
2022/01/30 08:30:48;;;;;;;7.22;1.45;;;;;;;13.83;44.65;102842.38;5055234;28;20486;-62
2022/01/30 08:33:16;;;;;;;11.23;2.03;;;;;;;13.88;43.94;102837.53;5054797;28;20024;-63
2022/01/30 08:35:41;;;;;;;10.00;2.88;;;;;;;13.96;43.90;102843.28;5054563;28;20510;-63
2022/01/30 08:38:07;;;;;;;5.93;1.80;;;;;;;14.02;43.49;102834.78;5061701;28;20023;-62
2022/01/30 08:40:32;;;;;;;5.15;1.50;;;;;;;14.08;44.35;102849.69;5073733;28;20111;-62
2022/01/30 08:42:58;;;;;;;5.80;1.42;;;;;;;14.15;45.18;102840.25;5056404;28;20489;-62
2022/01/30 08:45:23;;;;;;;8.68;2.00;;;;;;;14.18;44.71;102843.56;5074322;28;20111;-62
2022/01/30 08:47:51;;;;;;;12.07;1.83;;;;;;;14.21;44.39;102839.84;5074612;28;20028;-62
2022/01/30 08:50:18;;;;;;;10.20;2.10;;;;;;;14.24;44.99;102840.47;5074242;28;20024;-62
2022/01/30 08:52:43;;;;;;;16.02;2.72;;;;;;;14.25;45.26;102836.81;5074171;28;20028;-62
2022/01/30 08:55:10;;;;;;;14.32;2.25;;;;;;;14.25;45.13;102835.94;5074243;28;20066;-62
2022/01/30 08:57:35;;;;;;;5.97;1.50;;;;;;;14.27;45.09;102842.97;5074565;28;20417;-63
2022/01/30 09:00:02;;;;;;;11.02;1.75;;;;;;;14.38;45.23;102843.13;5074522;28;20024;-63
2022/01/30 09:02:27;;;;;;;20.70;2.10;;;;;;;14.53;44.45;102842.09;5074160;28;20028;-63
2022/01/30 09:04:52;;;;;;;10.52;2.53;;;;;;;14.66;44.59;102833.13;5074010;28;20028;-63
2022/01/30 09:07:19;;;;;;;10.98;2.20;;;;;;;14.85;44.50;102833.59;5074013;28;20024;-63
2022/01/30 09:09:45;;;;;;;20.38;4.05;;;;;;;15.02;44.52;102835.94;5056155;28;20031;-64
2022/01/30 09:12:10;;;;;;;8.90;2.20;;;;;;;15.17;42.97;102832.19;5074064;28;20478;-62
2022/01/30 09:14:40;;;;;;;7.78;2.13;;;;;;;15.35;42.75;102841.66;5074354;28;20055;-63
2022/01/30 09:17:12;;;;;;;17.65;2.28;;;;;;;15.55;43.93;102841.09;5074326;28;20059;-63
2022/01/30 09:19:39;;;;;;;12.20;3.58;;;;;;;15.76;42.69;102845.91;5074404;28;20048;-63
2022/01/30 09:22:04;;;;;;;15.90;3.90;;;;;;;15.94;43.02;102845.38;5074275;28;20054;-63
2022/01/30 09:24:30;;;;;;;6.63;2.00;;;;;;;16.09;43.88;102848.78;5074875;28;20111;-64
2022/01/30 09:26:57;;;;;;;13.05;2.60;;;;;;;16.35;42.71;102855.81;5077350;28;20479;-63
2022/01/30 09:29:23;;;;;;;15.40;3.47;;;;;;;16.53;42.52;102856.22;5058211;28;20033;-63
2022/01/30 09:31:49;;;;;;;11.68;2.30;;;;;;;16.71;42.42;102855.72;5074116;28;20161;-63
2022/01/30 09:34:14;;;;;;;8.80;2.15;;;;;;;16.94;42.01;102858.47;5074179;28;20056;-63
2022/01/30 09:36:40;;;;;;;11.07;2.55;;;;;;;17.12;41.78;102865.13;5073833;28;20076;-63
2022/01/30 09:39:05;;;;;;;16.83;2.97;;;;;;;17.34;42.00;102866.00;5074338;28;20021;-63
2022/01/30 09:41:31;;;;;;;13.57;2.70;;;;;;;17.60;42.08;102869.34;5056501;28;20028;-62
2022/01/30 09:43:58;;;;;;;14.40;2.45;;;;;;;17.88;41.16;102867.94;5056390;28;20032;-63
2022/01/30 09:46:24;;;;;;;13.52;2.33;;;;;;;18.22;40.80;102866.00;5039844;28;20391;-63
2022/01/30 09:48:49;;;;;;;15.48;2.65;;;;;;;18.52;40.54;102871.56;5074401;28;20040;-63
2022/01/30 09:51:15;;;;;;;24.30;3.58;;;;;;;18.83;40.45;102862.53;5056466;28;20425;-63
2022/01/30 09:53:40;;;;;;;9.25;2.28;;;;;;;19.09;39.81;102858.41;5057030;28;20025;-63
2022/01/30 09:56:06;;;;;;;9.68;2.08;;;;;;;19.35;39.64;102868.78;5057702;28;20032;-63
2022/01/30 09:58:32;;;;;;;11.38;1.80;;;;;;;19.63;39.40;102876.25;5074543;28;20437;-63
2022/01/30 10:00:58;;;;;;;11.13;2.55;;;;;;;19.86;39.19;102875.03;5074922;28;20443;-62
2022/01/30 10:03:26;;;;;;;6.90;2.03;;;;;;;20.15;38.96;102875.09;5074539;28;20059;-63
2022/01/30 10:06:14;;;;;;;11.27;2.53;;;;;;;20.50;38.71;102882.72;5074367;28;20024;-63
2022/01/30 10:08:43;;;;;;;12.93;2.42;;;;;;;20.78;38.33;102874.53;5073785;28;20024;-63
2022/01/30 10:11:31;;;;;;;15.10;3.05;;;;;;;21.04;38.43;102874.78;5073551;28;20489;-63
2022/01/30 10:14:06;;;;;;;6.40;2.30;;;;;;;21.36;37.17;102875.25;5058991;28;20031;-63
2022/01/30 10:16:46;;;;;;;11.85;1.98;;;;;;;21.69;36.59;102881.16;5053410;28;20363;-63
2022/01/30 10:19:20;;;;;;;10.00;2.67;;;;;;;21.91;37.62;102883.50;5055773;28;20020;-63
2022/01/30 10:21:47;;;;;;;14.65;1.98;;;;;;;22.09;36.51;102889.84;5057228;28;20036;-63
2022/01/30 10:24:21;;;;;;;13.52;2.70;;;;;;;22.33;36.61;102881.94;5039026;28;20064;-63
2022/01/30 10:26:47;;;;;;;12.02;2.13;;;;;;;22.55;36.40;102875.97;5056949;28;20032;-64
2022/01/30 10:29:24;;;;;;;11.35;2.28;;;;;;;22.81;35.54;102873.31;5056936;28;20032;-65
2022/01/30 10:32:00;;;;;;;11.80;2.78;;;;;;;23.05;35.64;102872.63;5038989;28;20086;-64
2022/01/30 10:34:29;;;;;;;16.17;2.67;;;;;;;22.33;35.75;102871.00;5056676;28;20027;-64
2022/01/30 10:37:18;;;;;;;9.15;2.33;;;;;;;21.60;37.27;102882.06;5056418;28;20051;-64
2022/01/30 10:40:06;;;;;;;12.80;2.40;;;;;;;21.06;36.69;102888.25;5038378;28;20025;-64
2022/01/30 10:42:44;;;;;;;13.98;2.20;;;;;;;20.95;37.28;102886.56;5056715;28;20021;-64
2022/01/30 10:45:12;;;;;;;6.25;1.73;;;;;;;20.56;36.93;102885.75;5056719;28;20021;-64
2022/01/30 10:47:39;;;;;;;8.52;1.77;;;;;;;20.21;37.23;102882.69;5056802;28;20033;-64
2022/01/30 10:50:31;;;;;;;18.98;1.85;;;;;;;20.69;36.50;102885.44;5056870;28;20041;-64
2022/01/30 10:52:59;;;;;;;13.13;2.88;;;;;;;20.22;36.44;102884.41;5051735;28;20077;-64
2022/01/30 10:55:41;;;;;;;16.08;3.03;;;;;;;19.94;36.87;102879.75;5056779;28;20060;-64
2022/01/30 10:58:11;;;;;;;4.93;2.40;;;;;;;20.31;36.36;102879.00;5039201;28;20021;-64
2022/01/30 11:00:39;;;;;;;10.00;2.03;;;;;;;20.36;36.47;102864.94;5038850;28;20498;-64
2022/01/30 11:03:04;;;;;;;7.72;2.30;;;;;;;19.87;36.70;102871.31;5056766;28;20028;-64
2022/01/30 11:05:29;;;;;;;6.10;1.70;;;;;;;19.60;36.78;102873.78;5056458;28;20025;-64
2022/01/30 11:07:56;;;;;;;12.63;2.10;;;;;;;20.32;36.17;102877.97;5056492;28;20489;-64
2022/01/30 11:10:25;;;;;;;4.80;2.47;;;;;;;20.92;35.34;102859.59;5056466;28;20060;-64
2022/01/30 11:13:08;;;;;;;9.57;2.38;;;;;;;20.72;35.13;102866.06;5056424;28;20024;-64
2022/01/30 11:15:43;;;;;;;9.95;2.42;;;;;;;20.92;35.21;102855.00;5056906;28;20107;-64
2022/01/30 11:18:08;;;;;;;10.75;3.30;;;;;;;20.96;35.84;102855.59;5039044;28;20086;-64
2022/01/30 11:20:34;;;;;;;9.60;2.13;;;;;;;20.52;35.42;102850.78;5038789;28;20037;-64
2022/01/30 11:23:02;;;;;;;9.00;1.85;;;;;;;21.16;35.16;102851.81;5056249;28;20039;-64
2022/01/30 11:25:33;;;;;;;9.40;2.35;;;;;;;21.65;34.45;102849.72;5056042;28;20039;-64
2022/01/30 11:28:02;;;;;;;14.35;2.03;;;;;;;21.19;34.37;102840.59;5055962;28;20029;-64
2022/01/30 11:30:27;;;;;;;10.43;2.17;;;;;;;20.95;34.73;102832.06;5054602;28;20028;-64
2022/01/30 11:32:53;;;;;;;11.15;1.95;;;;;;;20.46;35.23;102837.75;5055912;28;20024;-64
2022/01/30 11:35:18;;;;;;;12.13;1.85;;;;;;;20.16;35.25;102839.56;5037788;28;20029;-65
2022/01/30 11:37:44;;;;;;;8.48;2.13;;;;;;;20.07;35.47;102848.56;5055967;28;20104;-64
2022/01/30 11:40:15;;;;;;;14.35;2.13;;;;;;;20.33;35.15;102830.72;5056208;28;20057;-65
2022/01/30 11:42:46;;;;;;;16.30;2.72;;;;;;;20.01;35.31;102832.84;5056034;28;20066;-64
2022/01/30 11:45:24;;;;;;;10.48;1.83;;;;;;;19.70;35.20;102825.75;5056005;28;20089;-64
2022/01/30 11:48:04;;;;;;;15.50;4.47;;;;;;;19.47;34.80;102830.56;5055997;28;20108;-64
2022/01/30 11:50:33;;;;;;;9.38;2.72;;;;;;;19.27;35.64;102822.41;5055689;28;20033;-64
2022/01/30 11:53:15;;;;;;;16.70;2.88;;;;;;;19.07;35.19;102811.47;5055911;28;20025;-64
2022/01/30 11:55:50;;;;;;;10.45;1.40;;;;;;;18.88;35.72;102822.25;5038497;28;20029;-64
2022/01/30 11:58:42;;;;;;;15.73;2.58;;;;;;;18.73;35.46;102820.88;5037808;28;20021;-64
2022/01/30 12:01:29;;;;;;;12.45;2.45;;;;;;;18.62;36.23;102820.91;5055615;28;20529;-64
2022/01/30 12:03:59;;;;;;;8.23;2.63;;;;;;;18.49;35.15;102809.41;5039129;28;20036;-64
2022/01/30 12:06:24;;;;;;;11.57;2.13;;;;;;;18.35;36.49;102806.97;5055879;28;20025;-64
2022/01/30 12:08:54;;;;;;;9.63;2.38;;;;;;;18.43;35.67;102793.63;5055052;28;20065;-64
2022/01/30 12:11:37;;;;;;;13.05;3.58;;;;;;;18.46;35.71;102815.06;5055965;28;20021;-64